Terminal Aerodrome Forecast
Issued by NWS

Home | Current Version | Previous Version | Text Only | Print | Product List | Glossary On
Versions: 1 2 3 4 5 6 7 8 9 10 11 12 13 14 15
000
FTUS45 KGJT 200532
TAFVEL
TAF
KVEL 200532Z 2006/2106 04009KT P6SM FEW080 FEW110
     FM200900 21007KT P6SM FEW080 SCT200
     FM201200 24006KT P6SM FEW100 FEW250
     FM201900 26010G20KT P6SM FEW140 FEW200
     FM202200 22013G25KT P6SM FEW120 FEW150
     FM210000 08012KT P6SM BKN090 BKN140=

USA.gov is the U.S. government's official web portal to all federal, state and local government web resources and services.